createdAt,value
2022-10-12T00:01:07.038Z,57.79
2022-10-12T00:03:53.362Z,57.69
2022-10-12T00:06:39.321Z,57.67
2022-10-12T00:09:25.539Z,57.80
2022-10-12T00:12:11.831Z,57.64
2022-10-12T00:14:57.925Z,57.73
2022-10-12T00:17:43.955Z,57.96
2022-10-12T00:20:29.827Z,57.90
2022-10-12T00:23:15.694Z,57.84
2022-10-12T00:26:03.655Z,57.94
2022-10-12T00:28:54.699Z,57.79
2022-10-12T00:31:40.709Z,57.91
2022-10-12T00:34:26.865Z,57.97
2022-10-12T00:37:13.367Z,57.63
2022-10-12T00:39:59.460Z,58.12
2022-10-12T00:42:45.354Z,58.02
2022-10-12T00:45:32.435Z,57.92
2022-10-12T00:48:18.677Z,58.01
2022-10-12T00:51:05.192Z,57.68
2022-10-12T00:53:58.143Z,57.82
2022-10-12T00:56:45.123Z,58.23
2022-10-12T00:59:35.580Z,58.06
2022-10-12T01:02:23.125Z,57.93
2022-10-12T01:05:10.423Z,58.00
2022-10-12T01:07:56.548Z,58.04
2022-10-12T01:10:42.399Z,57.91
2022-10-12T01:13:28.434Z,58.27
2022-10-12T01:16:34.858Z,58.42
2022-10-12T01:20:05.234Z,58.68
2022-10-12T01:23:29.057Z,58.34
2022-10-12T01:26:52.852Z,58.38
2022-10-12T01:30:07.373Z,58.49
2022-10-12T01:33:15.393Z,58.40
2022-10-12T01:36:07.127Z,58.44
2022-10-12T01:38:55.584Z,58.35
2022-10-12T01:41:48.057Z,58.64
2022-10-12T01:44:39.199Z,58.46
2022-10-12T01:47:28.677Z,58.35
2022-10-12T01:50:15.797Z,58.31
2022-10-12T01:53:27.635Z,58.80
2022-10-12T01:56:39.701Z,58.59
2022-10-12T01:59:37.499Z,58.34
2022-10-12T02:02:44.796Z,58.28
2022-10-12T02:05:56.913Z,58.46
2022-10-12T02:08:54.920Z,58.54
2022-10-12T02:11:42.292Z,58.62
2022-10-12T02:14:35.804Z,58.78
2022-10-12T02:17:22.920Z,58.38
2022-10-12T02:20:12.536Z,58.81
2022-10-12T02:22:58.869Z,58.93
2022-10-12T02:25:46.547Z,58.61
2022-10-12T02:28:34.904Z,58.93
2022-10-12T02:32:02.790Z,59.18
2022-10-12T02:35:03.326Z,59.02
2022-10-12T02:38:04.384Z,58.89
2022-10-12T02:40:54.402Z,58.99
2022-10-12T02:43:44.783Z,58.69
2022-10-12T02:46:32.101Z,58.80
2022-10-12T02:49:18.664Z,58.92
2022-10-12T02:52:06.003Z,58.72
2022-10-12T02:54:51.854Z,59.07
2022-10-12T02:57:38.039Z,59.04
2022-10-12T03:00:24.188Z,59.12
2022-10-12T03:03:10.067Z,58.94
2022-10-12T03:05:56.448Z,58.87
2022-10-12T03:08:42.465Z,59.26
2022-10-12T03:11:28.640Z,58.99
2022-10-12T03:14:15.273Z,59.23
2022-10-12T03:17:01.534Z,58.97
2022-10-12T03:19:47.737Z,58.93
2022-10-12T03:22:33.729Z,58.98
2022-10-12T03:25:19.761Z,60.18
2022-10-12T03:28:06.066Z,59.26
2022-10-12T03:30:52.280Z,59.16
2022-10-12T03:33:38.142Z,59.19
2022-10-12T03:36:24.215Z,59.20
2022-10-12T03:39:11.653Z,59.10
2022-10-12T03:41:57.832Z,59.15
2022-10-12T03:44:43.769Z,59.38
2022-10-12T03:47:29.699Z,59.02
2022-10-12T03:50:15.651Z,59.14
2022-10-12T03:53:03.151Z,59.04
2022-10-12T03:55:49.371Z,59.05
2022-10-12T03:58:35.350Z,59.02
2022-10-12T04:01:21.398Z,59.19
2022-10-12T04:04:07.213Z,59.25
2022-10-12T04:06:53.313Z,59.14
2022-10-12T04:09:39.239Z,59.05
2022-10-12T04:12:25.151Z,59.20
2022-10-12T04:15:11.249Z,59.31
2022-10-12T04:17:57.065Z,59.42
2022-10-12T04:20:42.932Z,59.33
2022-10-12T04:23:28.910Z,59.25
2022-10-12T04:26:14.781Z,59.33
2022-10-12T04:29:00.623Z,59.56
2022-10-12T04:31:46.378Z,59.31
2022-10-12T04:34:32.381Z,59.45
2022-10-12T04:37:18.385Z,59.18
2022-10-12T04:40:04.678Z,59.33
2022-10-12T04:42:50.735Z,59.31
2022-10-12T04:45:36.585Z,59.43
2022-10-12T04:48:23.650Z,59.17
2022-10-12T04:51:09.890Z,59.45
2022-10-12T04:53:55.610Z,59.32
2022-10-12T04:56:46.825Z,60.08
2022-10-12T04:59:34.016Z,59.42
2022-10-12T05:02:19.919Z,59.65
2022-10-12T05:05:06.264Z,59.91
2022-10-12T05:07:52.290Z,59.81
2022-10-12T05:10:38.198Z,59.94
2022-10-12T05:13:24.153Z,59.77
2022-10-12T05:16:10.140Z,59.80
2022-10-12T05:18:55.955Z,59.96
2022-10-12T05:21:42.461Z,59.57
2022-10-12T05:24:28.996Z,59.73
2022-10-12T05:27:15.044Z,59.87
2022-10-12T05:30:01.054Z,60.03
2022-10-12T05:32:47.957Z,59.96
2022-10-12T05:35:33.728Z,59.50
2022-10-12T05:38:19.654Z,59.80
2022-10-12T05:41:05.898Z,59.76
2022-10-12T05:43:53.758Z,59.65
2022-10-12T05:46:39.695Z,60.18
2022-10-12T05:49:25.808Z,60.07
2022-10-12T05:52:11.698Z,59.74
2022-10-12T05:54:57.686Z,59.62
2022-10-12T05:57:44.854Z,59.87
2022-10-12T06:00:32.300Z,59.83
2022-10-12T06:03:18.988Z,59.93
2022-10-12T06:06:06.862Z,59.67
2022-10-12T06:08:52.992Z,60.28
2022-10-12T06:11:39.727Z,59.88
2022-10-12T06:14:25.921Z,60.00
2022-10-12T06:17:11.817Z,59.97
2022-10-12T06:19:58.369Z,59.91
2022-10-12T06:22:44.202Z,60.09
2022-10-12T06:25:30.109Z,60.09
2022-10-12T06:28:17.099Z,60.06
2022-10-12T06:31:02.889Z,59.86
2022-10-12T06:33:50.979Z,59.93
2022-10-12T06:36:36.817Z,59.77
2022-10-12T06:39:25.545Z,59.85
2022-10-12T06:42:11.980Z,60.05
2022-10-12T06:45:08.735Z,59.47
2022-10-12T06:47:54.552Z,60.07
2022-10-12T06:50:40.478Z,59.90
2022-10-12T06:53:28.889Z,59.90
2022-10-12T06:56:14.728Z,60.06
2022-10-12T06:59:01.021Z,60.13
2022-10-12T07:01:47.086Z,60.15
2022-10-12T07:04:33.128Z,60.13
2022-10-12T07:07:19.805Z,60.04
2022-10-12T07:10:06.969Z,60.07
2022-10-12T07:12:52.872Z,59.90
2022-10-12T07:15:38.857Z,59.70
2022-10-12T07:18:24.875Z,59.83
2022-10-12T07:21:11.237Z,59.78
2022-10-12T07:23:57.138Z,59.93
2022-10-12T07:26:43.117Z,59.74
2022-10-12T07:29:31.804Z,59.94
2022-10-12T07:32:18.091Z,59.91
2022-10-12T07:35:04.300Z,59.66
2022-10-12T07:37:50.441Z,59.73
2022-10-12T07:40:37.247Z,59.35
2022-10-12T07:43:23.167Z,59.60
2022-10-12T07:46:09.221Z,59.39
2022-10-12T07:48:55.137Z,59.39
2022-10-12T07:51:41.494Z,59.15
2022-10-12T07:54:29.689Z,59.29
2022-10-12T07:57:15.699Z,59.41
2022-10-12T08:00:01.550Z,59.20
2022-10-12T08:02:57.715Z,59.14
2022-10-12T08:05:43.803Z,59.04
2022-10-12T08:08:30.101Z,58.98
2022-10-12T08:11:16.838Z,58.84
2022-10-12T08:14:03.176Z,58.98
2022-10-12T08:16:49.202Z,58.69
2022-10-12T08:19:38.358Z,58.85
2022-10-12T08:22:24.302Z,58.28
2022-10-12T08:25:10.620Z,58.79
2022-10-12T08:27:56.511Z,58.69
2022-10-12T08:30:42.657Z,58.84
2022-10-12T08:33:30.041Z,58.85
2022-10-12T08:36:16.479Z,58.40
2022-10-12T08:39:02.620Z,58.46
2022-10-12T08:42:09.210Z,58.35
2022-10-12T08:45:01.329Z,58.18
2022-10-12T08:47:51.572Z,57.98
2022-10-12T08:50:42.865Z,57.94
2022-10-12T08:53:50.374Z,57.66
2022-10-12T08:56:36.614Z,57.75
2022-10-12T08:59:22.857Z,57.80
2022-10-12T09:02:34.775Z,57.92
2022-10-12T09:05:34.281Z,57.54
2022-10-12T09:08:29.944Z,57.59
2022-10-12T09:11:45.246Z,57.34
2022-10-12T09:14:34.530Z,57.32
2022-10-12T09:17:25.997Z,56.94
2022-10-12T09:20:18.505Z,57.18
2022-10-12T09:23:19.655Z,57.14
2022-10-12T09:26:16.734Z,56.88
2022-10-12T09:29:05.615Z,56.80
2022-10-12T09:32:27.422Z,56.65
2022-10-12T09:35:14.331Z,56.47
2022-10-12T09:38:01.145Z,56.60
2022-10-12T09:40:47.494Z,56.54
2022-10-12T09:43:33.940Z,56.48
2022-10-12T09:46:26.460Z,56.15
2022-10-12T09:49:12.467Z,56.33
2022-10-12T09:52:01.675Z,55.90
2022-10-12T09:55:20.553Z,55.97
2022-10-12T09:58:18.841Z,55.42
2022-10-12T10:01:21.858Z,55.28
2022-10-12T10:04:14.471Z,55.47
2022-10-12T10:07:33.843Z,55.48
2022-10-12T10:10:29.289Z,54.91
2022-10-12T10:13:16.582Z,55.27
2022-10-12T10:16:11.953Z,54.82
2022-10-12T10:19:00.502Z,54.79
2022-10-12T10:21:46.708Z,55.03
2022-10-12T10:24:33.309Z,54.45
2022-10-12T10:27:45.726Z,54.30
2022-10-12T10:30:35.325Z,54.65
2022-10-12T10:33:24.797Z,55.49
2022-10-12T10:36:23.649Z,54.36
2022-10-12T10:39:18.387Z,54.46
2022-10-12T10:42:12.566Z,51.71
2022-10-12T10:45:04.098Z,53.71
2022-10-12T10:47:50.402Z,54.20
2022-10-12T10:50:41.958Z,53.85
2022-10-12T10:53:50.845Z,53.98
2022-10-12T10:56:37.099Z,54.02
2022-10-12T10:59:35.167Z,53.59
2022-10-12T11:02:32.005Z,53.53
2022-10-12T11:05:23.458Z,53.42
2022-10-12T11:08:21.358Z,53.09
2022-10-12T11:11:23.928Z,53.55
2022-10-12T11:14:17.520Z,52.83
2022-10-12T11:17:06.680Z,52.86
2022-10-12T11:20:27.179Z,52.91
2022-10-12T11:23:37.373Z,48.17
2022-10-12T11:26:30.159Z,52.44
2022-10-12T11:29:18.122Z,52.31
2022-10-12T11:32:22.856Z,52.24
2022-10-12T11:35:42.815Z,52.58
2022-10-12T11:38:38.489Z,51.95
2022-10-12T11:55:41.323Z,49.57
2022-10-12T11:58:55.773Z,49.23
2022-10-12T12:02:05.363Z,49.76
2022-10-12T12:04:52.723Z,49.41
2022-10-12T12:07:50.296Z,49.40
2022-10-12T12:10:37.352Z,48.87
2022-10-12T12:13:26.908Z,49.21
2022-10-12T12:28:25.319Z,46.85
2022-10-12T12:31:22.905Z,47.12
2022-10-12T12:34:16.963Z,46.47
2022-10-12T12:37:11.590Z,44.95
2022-10-12T12:39:58.860Z,47.61
2022-10-12T12:42:45.103Z,47.65
2022-10-12T12:45:31.083Z,47.95
2022-10-12T12:48:42.377Z,47.58
2022-10-12T12:51:39.306Z,45.58
2022-10-12T12:54:25.591Z,47.92
2022-10-12T12:57:23.575Z,47.94
2022-10-12T13:00:15.563Z,47.83
2022-10-12T13:03:08.157Z,48.11
2022-10-12T13:06:12.942Z,48.63
2022-10-12T13:09:34.700Z,47.35
2022-10-12T13:12:36.019Z,47.86
2022-10-12T13:15:30.220Z,46.85
2022-10-12T13:18:46.489Z,48.05
2022-10-12T13:21:39.382Z,47.67
2022-10-12T13:24:29.015Z,47.95
2022-10-12T13:27:34.109Z,47.95
2022-10-12T13:30:34.662Z,47.77
2022-10-12T13:33:51.889Z,45.24
2022-10-12T13:36:51.809Z,47.18
2022-10-12T13:39:44.781Z,47.67
2022-10-12T13:42:32.666Z,48.21
2022-10-12T13:45:19.892Z,47.97
2022-10-12T13:48:05.983Z,48.17
2022-10-12T13:51:01.549Z,46.71
2022-10-12T13:53:48.206Z,47.43
2022-10-12T13:56:34.166Z,47.43
2022-10-12T13:59:23.167Z,47.42
2022-10-12T14:02:38.712Z,47.57
2022-10-12T14:05:27.852Z,48.22
2022-10-12T14:08:23.453Z,48.03
2022-10-12T14:11:09.527Z,48.18
2022-10-12T14:13:56.863Z,47.94
2022-10-12T14:16:42.816Z,47.92
2022-10-12T14:19:45.536Z,47.65
2022-10-12T14:22:33.001Z,47.51
2022-10-12T14:25:25.418Z,47.59
2022-10-12T14:28:20.918Z,48.18
2022-10-12T14:31:07.170Z,47.75
2022-10-12T14:33:53.544Z,47.50
2022-10-12T14:36:39.830Z,47.26
2022-10-12T14:39:26.949Z,47.05
2022-10-12T14:42:34.567Z,47.03
2022-10-12T14:45:24.159Z,47.06
2022-10-12T14:48:16.559Z,47.18
2022-10-12T14:51:03.023Z,47.16
2022-10-12T14:54:01.439Z,47.15
2022-10-12T14:56:47.878Z,47.28
2022-10-12T14:59:33.968Z,47.76
2022-10-12T15:02:26.086Z,47.74
2022-10-12T15:05:13.386Z,47.80
2022-10-12T15:08:01.004Z,47.90
2022-10-12T15:10:50.229Z,48.12
2022-10-12T15:13:36.162Z,47.88
2022-10-12T15:16:25.344Z,48.35
2022-10-12T15:19:11.541Z,49.01
2022-10-12T15:21:57.562Z,49.06
2022-10-12T15:24:43.866Z,49.89
2022-10-12T15:27:30.282Z,48.73
2022-10-12T15:30:16.307Z,48.78
2022-10-12T15:33:02.772Z,48.82
2022-10-12T15:35:48.990Z,49.21
2022-10-12T15:38:35.522Z,49.10
2022-10-12T15:41:23.770Z,49.21
2022-10-12T15:44:12.180Z,49.65
2022-10-12T15:47:00.682Z,49.99
2022-10-12T15:49:46.954Z,49.73
2022-10-12T15:52:33.119Z,49.77
2022-10-12T15:55:21.101Z,49.77
2022-10-12T15:58:07.202Z,50.30
2022-10-12T16:00:53.853Z,49.99
2022-10-12T16:03:39.953Z,50.04
2022-10-12T16:06:26.779Z,50.08
2022-10-12T16:09:12.984Z,49.55
2022-10-12T16:11:58.915Z,49.85
2022-10-12T16:14:44.736Z,49.57
2022-10-12T16:17:30.681Z,49.81
2022-10-12T16:20:17.233Z,50.09
2022-10-12T16:23:06.234Z,50.14
2022-10-12T16:25:53.340Z,49.67
2022-10-12T16:28:39.795Z,50.00
2022-10-12T16:31:25.810Z,49.89
2022-10-12T16:34:12.156Z,49.94
2022-10-12T16:36:58.865Z,49.96
2022-10-12T16:39:44.703Z,50.36
2022-10-12T16:42:31.106Z,50.22
2022-10-12T16:45:17.100Z,50.08
2022-10-12T16:48:03.815Z,50.41
2022-10-12T16:50:50.141Z,51.04
2022-10-12T16:53:35.982Z,50.57
2022-10-12T16:56:22.291Z,50.48
2022-10-12T16:59:08.427Z,50.56
2022-10-12T17:01:54.441Z,51.52
2022-10-12T17:04:40.796Z,51.28
2022-10-12T17:07:27.067Z,51.27
2022-10-12T17:10:13.168Z,51.44
2022-10-12T17:12:59.263Z,51.08
2022-10-12T17:15:45.201Z,51.43
2022-10-12T17:18:31.575Z,52.63
2022-10-12T17:21:17.921Z,52.03
2022-10-12T17:24:03.871Z,52.24
2022-10-12T17:26:50.679Z,51.94
2022-10-12T17:29:37.366Z,51.96
2022-10-12T17:32:23.449Z,51.69
2022-10-12T17:35:09.715Z,51.96
2022-10-12T17:37:55.775Z,51.76
2022-10-12T17:40:41.571Z,51.61
2022-10-12T17:43:27.578Z,51.52
2022-10-12T17:46:13.525Z,51.50
2022-10-12T17:48:59.668Z,51.52
2022-10-12T17:51:48.115Z,51.51
2022-10-12T17:54:34.040Z,51.56
2022-10-12T17:57:20.516Z,51.54
2022-10-12T18:00:07.835Z,51.27
2022-10-12T18:02:58.378Z,51.47
2022-10-12T18:05:44.639Z,51.48
2022-10-12T18:08:30.744Z,51.50
2022-10-12T18:11:18.899Z,51.55
2022-10-12T18:14:06.174Z,51.61
2022-10-12T18:16:52.516Z,51.54
2022-10-12T18:19:38.515Z,51.52
2022-10-12T18:22:24.497Z,51.83
2022-10-12T18:25:10.536Z,51.64
2022-10-12T18:27:56.418Z,51.59
2022-10-12T18:30:47.630Z,51.79
2022-10-12T18:33:34.111Z,51.89
2022-10-12T18:36:21.185Z,52.05
2022-10-12T18:39:07.088Z,51.92
2022-10-12T18:41:52.870Z,51.52
2022-10-12T18:44:40.448Z,52.21
2022-10-12T18:47:26.600Z,52.11
2022-10-12T18:50:12.473Z,52.34
2022-10-12T18:52:58.694Z,52.25
2022-10-12T18:55:44.765Z,52.24
2022-10-12T18:58:31.639Z,52.33
2022-10-12T19:01:20.104Z,52.48
2022-10-12T19:04:06.849Z,52.71
2022-10-12T19:06:57.590Z,52.43
2022-10-12T19:09:43.903Z,52.70
2022-10-12T19:12:30.008Z,52.60
2022-10-12T19:15:15.784Z,52.62
2022-10-12T19:18:01.641Z,52.71
2022-10-12T19:20:47.696Z,52.80
2022-10-12T19:23:33.942Z,52.82
2022-10-12T19:26:26.156Z,53.14
2022-10-12T19:29:12.145Z,52.93
2022-10-12T19:31:58.359Z,52.92
2022-10-12T19:34:44.461Z,53.08
2022-10-12T19:37:30.316Z,53.04
2022-10-12T19:40:16.422Z,53.23
2022-10-12T19:43:02.627Z,53.07
2022-10-12T19:45:48.506Z,53.07
2022-10-12T19:48:35.862Z,53.56
2022-10-12T19:51:23.417Z,53.46
2022-10-12T19:54:11.766Z,53.57
2022-10-12T19:56:57.829Z,53.57
2022-10-12T19:59:43.809Z,53.70
2022-10-12T20:02:29.681Z,53.57
2022-10-12T20:05:15.743Z,54.04
2022-10-12T20:08:01.910Z,53.69
2022-10-12T20:10:47.966Z,53.97
2022-10-12T20:13:34.366Z,53.73
2022-10-12T20:16:21.715Z,53.95
2022-10-12T20:19:08.065Z,53.78
2022-10-12T20:21:54.185Z,53.93
2022-10-12T20:24:40.124Z,53.98
2022-10-12T20:27:26.178Z,54.02
2022-10-12T20:30:12.414Z,54.00
2022-10-12T20:33:00.568Z,54.04
2022-10-12T20:35:48.198Z,54.21
2022-10-12T20:38:34.677Z,54.15
2022-10-12T20:41:21.901Z,54.46
2022-10-12T20:44:09.850Z,54.36
2022-10-12T20:46:55.642Z,54.27
2022-10-12T20:49:41.902Z,54.19
2022-10-12T20:52:28.333Z,54.44
2022-10-12T20:55:14.351Z,54.47
2022-10-12T20:58:00.306Z,54.59
2022-10-12T21:00:46.601Z,54.49
2022-10-12T21:03:32.714Z,54.61
2022-10-12T21:06:20.560Z,54.78
2022-10-12T21:09:06.476Z,54.68
2022-10-12T21:11:52.534Z,55.08
2022-10-12T21:14:38.547Z,54.81
2022-10-12T21:17:24.353Z,54.82
2022-10-12T21:20:10.692Z,54.93
2022-10-12T21:22:56.601Z,54.94
2022-10-12T21:25:42.530Z,56.30
2022-10-12T21:28:28.457Z,55.46
2022-10-12T21:31:14.662Z,55.17
2022-10-12T21:34:01.775Z,55.49
2022-10-12T21:36:47.643Z,55.48
2022-10-12T21:39:33.595Z,55.53
2022-10-12T21:42:19.757Z,55.73
2022-10-12T21:45:06.177Z,55.55
2022-10-12T21:47:52.060Z,55.31
2022-10-12T21:50:38.076Z,55.34
2022-10-12T21:53:24.272Z,55.59
2022-10-12T21:56:15.598Z,55.78
2022-10-12T21:59:03.045Z,55.77
2022-10-12T22:01:49.152Z,55.75
2022-10-12T22:04:35.382Z,55.70
2022-10-12T22:07:21.425Z,55.72
2022-10-12T22:10:08.501Z,55.55
2022-10-12T22:12:54.969Z,55.69
2022-10-12T22:15:40.841Z,55.81
2022-10-12T22:18:30.336Z,55.91
2022-10-12T22:21:17.930Z,56.06
2022-10-12T22:24:04.221Z,55.87
2022-10-12T22:26:50.281Z,56.08
2022-10-12T22:29:36.197Z,55.95
2022-10-12T22:32:22.066Z,56.02
2022-10-12T22:35:08.359Z,56.07
2022-10-12T22:37:54.251Z,56.11
2022-10-12T22:40:40.167Z,55.92
2022-10-12T22:43:26.976Z,56.36
2022-10-12T22:46:13.036Z,56.23
2022-10-12T22:48:58.959Z,56.13
2022-10-12T22:51:45.375Z,56.41
2022-10-12T22:54:31.690Z,56.20
2022-10-12T22:57:17.974Z,56.60
2022-10-12T23:00:05.315Z,56.46
2022-10-12T23:02:51.670Z,56.43
2022-10-12T23:05:37.670Z,56.58
2022-10-12T23:08:23.671Z,56.57
2022-10-12T23:11:12.024Z,56.49
2022-10-12T23:13:58.261Z,56.40
2022-10-12T23:16:44.495Z,56.60
2022-10-12T23:19:30.514Z,56.55
2022-10-12T23:22:16.713Z,56.63
2022-10-12T23:25:02.833Z,56.60
2022-10-12T23:27:48.708Z,56.78
2022-10-12T23:30:34.734Z,56.69
2022-10-12T23:33:20.672Z,56.60
2022-10-12T23:36:09.194Z,56.72
2022-10-12T23:38:55.522Z,56.82
2022-10-12T23:41:41.886Z,56.89
2022-10-12T23:44:27.620Z,57.01
2022-10-12T23:47:13.483Z,57.09
2022-10-12T23:49:59.363Z,57.23
2022-10-12T23:52:45.313Z,57.08
2022-10-12T23:55:32.532Z,57.16
2022-10-12T23:58:19.242Z,56.92
